Aérodrome :
LOGIN :

S'inscrire | Disclaimer

   EN    FR    IT 

 










Légende :    VFR   VFR Marginal   IFR   IFR Intensif   IFR Très Intensif
Visi : 
Plafond : 
>= 8 km
>= 3000ft
5 à 8 km
1000 à 3000 ft
1500m à 5 km
500 à 1000 ft
800 à 1500m
200 à 500 ft
< 800m
< 200 ft
Symboles :   Orages  Brouillard  Fortes neiges  Fortes précipitations  Vent > 20 kt
SIGMETs :   Divers  Orages  Givrage  Turbulence  Onde Orograph.  Cendres Volcan.







- Altitude de l'aérodrome : 122 ft
- Code IATA : TXL


EDDT - Berlin Tegel Int.

DERNIER METAR :
  • 202150Z 25006KT CAVOK 21/18 Q1010

METARs EXPIRÉS :
  • 202120Z 24004KT 210V280 CAVOK 21/18 Q1010
  • 202050Z 22006KT 190V250 CAVOK 22/18 Q1010 NOSIG
  • 202020Z 25007KT CAVOK 22/17 Q1010 NOSIG
  • 201950Z 23006KT CAVOK 23/17 Q1010 NOSIG

TAF TAF EDDT
Valide du 20 à 18h jusqu'au 21 à 18h UTC


201700Z 2018/2118 23005KT CAVOK
BECMG 2101/2104 29008KT
BECMG 2115/2118 02005KT
Pas de NOTAMs connus pour ce terrain.



MET'MAP, la Météo Aéronautique d'un coup d'oeil ! - Copyright ORBIFLY Décembre 2007 - Disclaimer

ORBIFLY MET'MAP TEAM :

Programmation & Développement : Alexandra Zaïnal
Conception & Développement : Baudouin d'Aumeries
Co-Programmation & Développement : Marc-Olivier Méhu
Soutien technique & logistique : Manuel Goepfert

Contact : metmap@orbifly.com




SOURCES & CREDITS :

   NOAA